Corpus Christi, TX

7:19 PM CDT on March 24, 2017 (GMT -0500)
KTXANNAV2 | | Change Station

Elev 0 ft 27.83 °N, 97.58 °W | Updated 5 seconds ago

Scattered Clouds
Scattered Clouds
78.4 °F
Feels Like 81 °F
N
8.7
Wind Variable Wind from ENE
Gusts 16.8 mph

Today
High -- | Low -- °F
--% Chance of Precip.
Yesterday
High -- | Low -- °F
Precip. -- in
Pressure 29.87 in
Visibility 10.0 miles
Clouds Few 3500 ft
Scattered Clouds 25000 ft
Heat Index 81 °F
Dew Point 71 °F
Humidity 77%
Rainfall 0.00 in
Snow Depth Not available.
7:29 AM 7:43 PM
Waning Crescent, 12% visible
METAR KCRP 242351Z 16025G29KT 10SM FEW035 SCT250 26/19 A2987 RMK AO2 PK WND 15034/2303 SLP115 T02610194 10283 20250 55008
Pressure 29.87 in
Visibility 10.0 miles
Clouds Few 3500 ft
Scattered Clouds 25000 ft
Heat Index 81 °F
Dew Point 71 °F
Humidity 77%
Rainfall 0.00 in
Snow Depth Not available.
7:29 AM 7:43 PM
Waning Crescent, 12% visible
METAR KCRP 242351Z 16025G29KT 10SM FEW035 SCT250 26/19 A2987 RMK AO2 PK WND 15034/2303 SLP115 T02610194 10283 20250 55008

Get Severe Weather Alerts

Thanks for signing up!

Be on the lookout for a verification email in your inbox.

You'll start receiving the daily forecast at 8 AM.

×

10-Day Weather Forecast

Almanac

Astronomy

Mar. 24, 2017 Rise Set
Actual Time
Civil Twilight
Nautical Twilight
Astronomical Twilight
Moon
Length of Visible Light
Length of Day
Tomorrow will be .
, % of the Moon is Illuminated

Today's Extremes

State Highs State Lows

Community

WunderPhotos

Upload Photos

1,962,540 photos uploaded!

WunderBlog® & News

Nearby

Air Quality

  Air Quality AQ Index Pollutant
Not available.

Snow Depth

Station Depth Elevation

Earthquake Activity

City Distance Mag. Time & Date
Minimum magnitude displayed is 2.5.

Earthquake Activity

City Distance Mag. Time & Date
Minimum magnitude displayed is 2.5.

Coastal Water Temperatures

Place Temperature

Stations

Nearby Weather Stations

Station Location Temp. Windchill Dew Point Humidity Wind Precip. Elev Updated Type
                   

Watches & Warnings

There are currently no watches in effect.